Time;durP1;ratioP1;P1;durP2;ratioP2;P2;SDS_P1;SDS_P2;PMS_P1;PMS_P2;Temp;Humidity;BMP_temperature;BMP_pressure;BME280_temperature;BME280_humidity;BME280_pressure;Samples;Min_cycle;Max_cycle;Signal;HPM_P1;HPM_P2
2021/07/19 00:02:12;;;;;;;4.80;2.22;;;19.60;99.90;;;;;;10349080;28;20100;-60
2021/07/19 00:07:14;;;;;;;6.63;1.20;;;19.60;99.90;;;;;;10349577;28;20459;-60
2021/07/19 00:12:17;;;;;;;2.08;1.00;;;19.50;99.90;;;;;;10347836;28;20104;-61
2021/07/19 00:17:20;;;;;;;3.05;1.48;;;19.30;99.90;;;;;;10347899;28;20452;-60
2021/07/19 00:22:22;;;;;;;2.42;1.15;;;19.10;99.90;;;;;;10348001;28;20053;-60
2021/07/19 00:27:24;;;;;;;3.08;1.10;;;19.20;99.90;;;;;;10346136;28;20572;-60
2021/07/19 00:32:26;;;;;;;4.90;1.00;;;19.10;99.90;;;;;;10348947;28;20049;-60
2021/07/19 00:37:27;;;;;;;1.95;1.00;;;19.00;99.90;;;;;;10348984;28;20046;-60
2021/07/19 00:42:29;;;;;;;3.72;0.95;;;18.90;99.90;;;;;;10347918;28;20385;-59
2021/07/19 00:47:31;;;;;;;1.90;1.10;;;18.90;99.90;;;;;;10346006;28;20085;-60
2021/07/19 00:52:33;;;;;;;5.82;2.22;;;18.90;99.90;;;;;;10344742;28;20103;-60
2021/07/19 00:57:38;;;;;;;3.63;1.60;;;18.90;99.90;;;;;;10346065;28;20137;-60
2021/07/19 01:02:44;;;;;;;1.60;0.85;;;18.80;99.90;;;;;;10343787;28;20099;-60
2021/07/19 01:07:48;;;;;;;2.78;1.20;;;18.70;99.90;;;;;;10349066;28;20045;-60
2021/07/19 01:12:54;;;;;;;4.63;1.35;;;18.60;99.90;;;;;;10348599;28;20042;-61
2021/07/19 01:17:56;;;;;;;2.35;1.20;;;18.50;99.90;;;;;;10347497;28;20050;-60
2021/07/19 01:23:32;;;;;;;5.35;1.35;;;18.40;99.90;;;;;;10346645;28;20054;-60
2021/07/19 01:28:46;;;;;;;4.00;1.63;;;18.40;99.90;;;;;;10292566;28;20127;-60
2021/07/19 01:33:51;;;;;;;2.30;1.42;;;18.40;99.90;;;;;;10301498;28;20451;-60
2021/07/19 01:38:53;;;;;;;2.60;1.58;;;18.50;99.90;;;;;;10335526;28;20493;-60
2021/07/19 01:44:00;;;;;;;2.63;1.60;;;18.40;99.90;;;;;;10352717;28;20116;-60
2021/07/19 01:49:02;;;;;;;;;;;18.50;99.90;;;;;;10355534;28;20115;-61
2021/07/19 01:54:05;;;;;;;5.57;1.40;;;18.50;99.90;;;;;;10352493;28;19972;-59
2021/07/19 01:59:06;;;;;;;2.00;1.38;;;18.50;99.90;;;;;;10352048;28;20054;-60
2021/07/19 02:04:09;;;;;;;3.47;1.48;;;18.50;99.90;;;;;;10348575;28;20081;-60
2021/07/19 02:09:12;;;;;;;3.03;1.20;;;18.60;99.90;;;;;;10352915;28;20057;-60
2021/07/19 02:14:15;;;;;;;3.28;1.30;;;18.60;99.90;;;;;;10352577;28;20046;-60
2021/07/19 02:19:17;;;;;;;6.28;1.70;;;18.60;99.90;;;;;;10352110;28;20469;-60
2021/07/19 02:24:23;;;;;;;1.48;1.17;;;18.60;99.90;;;;;;10354340;28;20061;-61
2021/07/19 02:29:26;;;;;;;3.45;1.40;;;18.60;99.90;;;;;;10352192;28;20538;-60
2021/07/19 02:34:30;;;;;;;4.60;1.55;;;18.50;99.90;;;;;;10352836;28;20085;-61
2021/07/19 02:39:32;;;;;;;2.08;1.27;;;18.50;99.90;;;;;;10352765;28;20066;-61
2021/07/19 02:44:36;;;;;;;2.45;1.73;;;18.50;99.90;;;;;;10332504;28;20054;-60
2021/07/19 02:49:40;;;;;;;1.27;1.10;;;18.40;99.90;;;;;;10348874;28;20049;-60
2021/07/19 02:54:42;;;;;;;5.07;1.75;;;18.30;99.90;;;;;;10350388;28;20103;-60
2021/07/19 02:59:44;;;;;;;4.07;1.52;;;18.30;99.90;;;;;;10350817;28;20136;-61
2021/07/19 03:04:47;;;;;;;2.80;1.42;;;18.30;99.90;;;;;;10349875;28;20104;-61
2021/07/19 03:09:54;;;;;;;3.67;1.55;;;18.20;99.90;;;;;;10352069;28;20045;-61
2021/07/19 03:14:56;;;;;;;7.53;1.45;;;18.20;99.90;;;;;;10351809;28;20069;-61
2021/07/19 03:19:59;;;;;;;5.40;1.45;;;18.20;99.90;;;;;;10350522;28;20081;-60
2021/07/19 03:25:01;;;;;;;7.38;1.67;;;18.00;99.90;;;;;;10349472;28;20050;-61
2021/07/19 03:30:05;;;;;;;2.25;1.73;;;17.90;99.90;;;;;;10347685;28;20046;-60
2021/07/19 03:35:08;;;;;;;8.98;2.22;;;17.80;99.90;;;;;;10349718;28;20050;-61
2021/07/19 03:40:11;;;;;;;2.63;1.70;;;17.70;99.90;;;;;;10348516;28;20069;-60
2021/07/19 03:45:14;;;;;;;4.90;1.90;;;17.70;99.90;;;;;;10350547;28;20131;-60
2021/07/19 03:50:16;;;;;;;2.90;1.45;;;17.70;99.90;;;;;;10349158;28;20046;-60
2021/07/19 03:55:18;;;;;;;7.20;2.15;;;17.60;99.90;;;;;;10347511;28;20507;-60
2021/07/19 04:00:20;;;;;;;3.58;1.80;;;17.70;99.90;;;;;;10348769;28;20431;-60
2021/07/19 04:05:24;;;;;;;3.25;1.55;;;17.70;99.90;;;;;;10350699;28;20100;-60
2021/07/19 04:10:26;;;;;;;3.55;1.70;;;17.80;99.90;;;;;;10347325;28;20084;-61
2021/07/19 04:15:29;;;;;;;2.38;1.77;;;17.80;99.90;;;;;;10346162;28;20434;-61
2021/07/19 04:20:31;;;;;;;4.35;1.95;;;17.80;99.90;;;;;;10349362;28;20058;-60
2021/07/19 04:25:33;;;;;;;4.43;1.60;;;17.80;99.90;;;;;;10348538;28;20180;-60
2021/07/19 04:30:37;;;;;;;4.00;1.98;;;17.80;99.90;;;;;;10348246;28;20053;-60
2021/07/19 04:35:42;;;;;;;3.45;1.80;;;17.90;99.90;;;;;;10347903;28;20131;-60
2021/07/19 04:40:48;;;;;;;3.13;1.83;;;18.00;99.90;;;;;;10348326;28;20077;-60
2021/07/19 04:45:51;;;;;;;3.50;1.98;;;18.00;99.90;;;;;;10345995;28;20046;-60
2021/07/19 04:50:53;;;;;;;9.07;2.65;;;18.10;99.90;;;;;;10349025;28;20554;-60
2021/07/19 04:55:58;;;;;;;8.35;2.40;;;18.20;99.90;;;;;;10348545;28;20045;-59
2021/07/19 05:01:08;;;;;;;2.85;1.73;;;18.30;99.90;;;;;;10345970;28;20448;-60
2021/07/19 05:06:11;;;;;;;4.65;1.55;;;18.40;99.90;;;;;;10347149;28;20128;-60
2021/07/19 05:11:15;;;;;;;4.22;1.90;;;18.50;99.90;;;;;;10356159;28;20096;-60
2021/07/19 05:16:18;;;;;;;4.60;1.90;;;18.60;99.90;;;;;;10355027;28;20464;-60
2021/07/19 05:21:20;;;;;;;3.22;2.15;;;18.70;99.90;;;;;;10356465;28;20104;-60
2021/07/19 05:26:21;;;;;;;5.45;2.05;;;18.70;99.90;;;;;;10353949;28;20054;-60
2021/07/19 05:31:24;;;;;;;2.55;1.83;;;18.80;99.90;;;;;;10352979;28;20050;-59
2021/07/19 05:36:26;;;;;;;9.07;1.60;;;18.90;99.90;;;;;;10355392;28;20047;-60
2021/07/19 05:41:27;;;;;;;5.72;1.60;;;19.10;99.90;;;;;;10353273;28;20542;-60
2021/07/19 05:46:29;;;;;;;4.50;1.73;;;19.20;99.90;;;;;;10350883;28;20050;-56
2021/07/19 05:51:31;;;;;;;5.05;1.88;;;19.20;99.90;;;;;;10353820;28;20049;-56
2021/07/19 05:56:34;;;;;;;4.20;1.50;;;19.30;99.90;;;;;;10351643;28;20049;-55
2021/07/19 06:01:36;;;;;;;4.55;1.65;;;19.40;99.90;;;;;;10350789;28;20119;-58
2021/07/19 06:06:38;;;;;;;5.97;1.88;;;19.40;99.90;;;;;;10354356;28;20548;-57
2021/07/19 06:11:40;;;;;;;5.60;1.90;;;19.50;99.90;;;;;;10351739;28;20459;-56
2021/07/19 06:16:42;;;;;;;4.70;1.73;;;19.50;99.90;;;;;;10353538;28;20089;-55
2021/07/19 06:21:43;;;;;;;4.20;1.65;;;19.40;99.90;;;;;;10352545;28;20050;-57
2021/07/19 06:26:45;;;;;;;7.25;1.35;;;19.40;99.90;;;;;;10350538;28;20467;-56
2021/07/19 06:31:47;;;;;;;15.10;3.05;;;19.50;99.90;;;;;;10351843;28;20046;-56
2021/07/19 06:36:49;;;;;;;3.70;1.50;;;19.60;99.90;;;;;;10349925;28;20111;-56
2021/07/19 06:41:50;;;;;;;14.52;2.60;;;19.60;99.90;;;;;;10350702;28;20077;-56
2021/07/19 06:46:56;;;;;;;5.88;1.63;;;19.60;99.90;;;;;;10350128;28;20100;-59
2021/07/19 06:51:58;;;;;;;6.10;1.37;;;19.70;99.90;;;;;;10348900;28;20041;-59
2021/07/19 06:56:59;;;;;;;7.50;1.45;;;19.80;99.90;;;;;;10350678;28;20058;-60
2021/07/19 07:02:02;;;;;;;5.35;1.98;;;19.90;99.90;;;;;;10349060;28;20058;-59
2021/07/19 07:07:04;;;;;;;7.78;1.48;;;19.90;99.90;;;;;;10351028;28;20054;-59
2021/07/19 07:12:07;;;;;;;4.57;1.48;;;20.10;99.90;;;;;;10349162;28;20044;-59
2021/07/19 07:17:10;;;;;;;4.70;2.00;;;20.20;99.90;;;;;;10330870;28;20100;-59
2021/07/19 07:22:12;;;;;;;3.63;1.10;;;20.20;99.90;;;;;;10352138;28;20045;-59
2021/07/19 07:27:14;;;;;;;3.80;1.45;;;20.20;99.90;;;;;;10351139;28;20431;-59
2021/07/19 07:32:15;;;;;;;9.10;1.75;;;20.20;99.90;;;;;;10350855;28;20054;-60
2021/07/19 07:37:17;;;;;;;2.80;1.40;;;20.10;99.90;;;;;;10351110;28;20054;-60
2021/07/19 07:42:19;;;;;;;4.18;1.23;;;19.80;99.90;;;;;;10350231;28;20118;-59
2021/07/19 07:47:21;;;;;;;10.20;1.63;;;20.00;99.90;;;;;;10346315;28;20111;-59
2021/07/19 07:52:22;;;;;;;4.75;1.40;;;20.40;99.90;;;;;;10350298;28;20480;-58
2021/07/19 07:57:24;;;;;;;2.80;1.60;;;20.40;99.90;;;;;;10350308;28;20606;-59
2021/07/19 08:02:26;;;;;;;2.42;1.40;;;20.40;99.90;;;;;;10330157;28;20112;-60
2021/07/19 08:07:28;;;;;;;4.10;1.23;;;20.60;99.90;;;;;;10349505;28;20468;-60
2021/07/19 08:12:29;;;;;;;11.88;7.10;;;20.70;99.90;;;;;;10349092;28;20065;-60
2021/07/19 08:17:31;;;;;;;36.92;18.55;;;21.00;99.90;;;;;;10350848;28;20903;-59
2021/07/19 08:22:33;;;;;;;35.53;19.75;;;20.90;99.90;;;;;;10349125;28;20054;-59
2021/07/19 08:27:35;;;;;;;5.63;2.00;;;20.70;99.90;;;;;;10347376;28;20124;-60
2021/07/19 08:32:37;;;;;;;3.80;2.00;;;20.70;99.90;;;;;;10347865;28;20073;-60
2021/07/19 08:37:45;;;;;;;5.30;2.50;;;20.90;99.90;;;;;;10350843;28;20104;-59
2021/07/19 08:42:48;;;;;;;8.00;2.85;;;21.10;99.90;;;;;;10349618;28;20188;-61
2021/07/19 08:47:52;;;;;;;6.57;2.33;;;21.10;99.90;;;;;;10357805;28;20511;-61
2021/07/19 08:52:54;;;;;;;5.40;2.22;;;21.10;99.90;;;;;;10357772;28;20484;-60
2021/07/19 08:57:57;;;;;;;6.88;3.15;;;21.10;99.90;;;;;;10354912;28;20663;-60
2021/07/19 09:02:59;;;;;;;6.88;3.42;;;21.20;99.90;;;;;;10351902;28;20518;-60
2021/07/19 09:08:03;;;;;;;4.63;3.13;;;21.10;99.70;;;;;;10357407;28;20567;-60
2021/07/19 09:13:07;;;;;;;7.70;3.85;;;21.30;99.20;;;;;;10355197;28;20100;-59
2021/07/19 09:18:09;;;;;;;7.20;4.40;;;21.30;97.80;;;;;;10337556;28;20487;-59
2021/07/19 09:23:11;;;;;;;7.82;4.78;;;21.40;96.80;;;;;;10353860;28;20037;-59
2021/07/19 09:28:14;;;;;;;10.43;5.30;;;21.60;96.40;;;;;;10353984;28;20054;-60
2021/07/19 09:33:22;;;;;;;7.78;4.97;;;21.50;95.80;;;;;;10353876;28;20112;-61
2021/07/19 09:38:29;;;;;;;7.70;5.07;;;21.70;96.40;;;;;;10352689;28;20473;-61
2021/07/19 09:43:32;;;;;;;10.90;5.25;;;21.80;94.30;;;;;;10352705;28;20061;-61
2021/07/19 09:48:35;;;;;;;10.38;6.18;;;21.50;94.80;;;;;;10350423;28;20054;-60
2021/07/19 09:53:39;;;;;;;9.93;5.93;;;21.80;94.90;;;;;;10349692;28;20137;-61
2021/07/19 09:58:42;;;;;;;8.35;5.63;;;22.00;95.10;;;;;;10350941;28;20062;-61
2021/07/19 10:03:44;;;;;;;12.88;5.68;;;21.70;94.20;;;;;;10351746;28;20050;-60
2021/07/19 10:08:55;;;;;;;9.02;5.30;;;22.20;93.60;;;;;;10353799;28;20049;-61
2021/07/19 10:13:57;;;;;;;10.75;6.60;;;22.20;92.90;;;;;;10353469;28;20138;-61
2021/07/19 10:25:16;;;;;;;11.93;6.32;;;22.40;92.20;;;;;;10287164;28;20038;-60
2021/07/19 10:30:18;;;;;;;10.70;6.65;;;22.80;90.80;;;;;;10353308;28;20084;-60
2021/07/19 10:35:20;;;;;;;12.25;5.75;;;23.20;91.20;;;;;;10354212;28;20038;-62
2021/07/19 10:40:28;;;;;;;10.88;6.35;;;23.30;91.70;;;;;;10344963;28;20143;-61
2021/07/19 10:45:41;;;;;;;10.02;5.53;;;23.40;89.10;;;;;;10346930;28;20652;-62
2021/07/19 10:50:42;;;;;;;12.27;6.75;;;23.50;87.00;;;;;;10346900;28;20053;-62
2021/07/19 10:55:44;;;;;;;9.68;6.32;;;23.80;87.40;;;;;;10349284;28;20042;-61
2021/07/19 11:00:47;;;;;;;8.80;6.18;;;23.90;88.00;;;;;;10347854;28;20400;-62
2021/07/19 11:05:53;;;;;;;11.25;6.07;;;23.80;85.90;;;;;;10331747;28;20492;-62
2021/07/19 11:10:56;;;;;;;;;;;24.20;83.80;;;;;;10348240;28;20054;-62
2021/07/19 11:15:59;;;;;;;10.93;6.65;;;23.90;84.00;;;;;;10344879;28;19930;-61
2021/07/19 11:21:02;;;;;;;12.13;6.85;;;24.10;85.90;;;;;;10344956;28;20115;-61
2021/07/19 11:26:17;;;;;;;13.32;7.10;;;24.80;83.50;;;;;;10348515;28;20053;-61
2021/07/19 11:31:30;;;;;;;13.57;7.45;;;24.70;83.30;;;;;;10346768;28;20104;-62
2021/07/19 11:36:45;;;;;;;11.15;6.45;;;24.80;81.50;;;;;;10352048;28;20484;-61
2021/07/19 11:42:01;;;;;;;13.40;7.53;;;24.10;81.80;;;;;;10348876;28;20085;-61
2021/07/19 11:47:04;;;;;;;;;;;24.90;82.40;;;;;;10350112;28;20408;-61
2021/07/19 11:52:09;;;;;;;11.00;6.95;;;24.80;81.80;;;;;;10348099;28;19964;-61
2021/07/19 11:57:10;;;;;;;10.70;6.20;;;24.90;81.00;;;;;;10348111;28;20107;-62
2021/07/19 12:02:12;;;;;;;13.35;6.85;;;25.40;77.70;;;;;;10348222;28;20103;-61
2021/07/19 12:07:14;;;;;;;12.65;7.32;;;25.50;78.90;;;;;;10344181;28;20108;-61
2021/07/19 12:12:16;;;;;;;12.18;7.43;;;25.30;77.90;;;;;;10347743;28;20112;-61
2021/07/19 12:17:32;;;;;;;11.18;6.93;;;25.40;77.10;;;;;;10346474;28;20046;-61
2021/07/19 12:22:36;;;;;;;15.30;7.15;;;25.90;76.90;;;;;;10346867;28;20061;-61
2021/07/19 12:27:38;;;;;;;12.93;6.88;;;26.00;76.80;;;;;;10348198;28;20054;-62
2021/07/19 12:32:40;;;;;;;11.65;7.65;;;25.80;75.90;;;;;;10328428;28;20053;-64
2021/07/19 12:37:56;;;;;;;10.57;7.50;;;26.30;77.10;;;;;;10331447;28;20050;-64
2021/07/19 12:42:58;;;;;;;15.20;7.47;;;25.90;74.00;;;;;;10298323;28;20054;-63
2021/07/19 12:48:01;;;;;;;11.30;7.78;;;26.50;74.30;;;;;;10348784;28;20503;-65
2021/07/19 12:53:12;;;;;;;15.18;7.70;;;26.20;72.90;;;;;;10347902;28;20053;-64
2021/07/19 12:58:15;;;;;;;15.07;7.70;;;26.10;71.80;;;;;;10344706;28;20084;-65
2021/07/19 13:03:26;;;;;;;12.40;7.93;;;26.30;73.10;;;;;;10345212;28;20111;-63
2021/07/19 13:08:33;;;;;;;12.85;7.82;;;26.50;71.70;;;;;;10346903;28;20050;-65
2021/07/19 13:13:35;;;;;;;12.43;8.27;;;26.40;71.40;;;;;;10329082;28;20057;-64
2021/07/19 13:18:37;;;;;;;15.07;7.85;;;26.70;73.40;;;;;;10337757;28;20076;-65
2021/07/19 13:23:40;;;;;;;11.10;6.93;;;26.10;72.50;;;;;;10345850;28;20050;-60
2021/07/19 13:28:42;;;;;;;14.02;7.85;;;26.80;73.80;;;;;;10331652;28;20427;-60
2021/07/19 13:33:44;;;;;;;12.65;7.80;;;26.50;71.60;;;;;;10351191;28;20115;-63
2021/07/19 13:38:48;;;;;;;11.43;7.25;;;26.80;72.30;;;;;;10353463;28;20050;-60
2021/07/19 13:44:00;;;;;;;17.05;8.65;;;27.40;70.10;;;;;;10346026;28;20476;-61
2021/07/19 13:49:02;;;;;;;10.57;7.63;;;27.50;68.50;;;;;;10352548;28;20079;-61
2021/07/19 13:54:04;;;;;;;13.65;7.55;;;27.70;68.40;;;;;;10346117;28;20046;-61
2021/07/19 13:59:05;;;;;;;15.48;8.38;;;28.00;67.00;;;;;;10353618;28;20462;-61
2021/07/19 14:04:07;;;;;;;11.95;7.68;;;28.00;68.30;;;;;;10347241;28;20064;-61
2021/07/19 14:09:09;;;;;;;11.90;8.30;;;28.60;66.00;;;;;;10348850;28;20053;-61
2021/07/19 14:14:12;;;;;;;11.00;7.55;;;28.90;65.40;;;;;;10345852;28;20046;-61
2021/07/19 14:19:14;;;;;;;10.50;7.25;;;29.30;64.50;;;;;;10344451;28;20052;-62
2021/07/19 14:24:17;;;;;;;11.15;7.65;;;29.40;64.30;;;;;;10348187;28;20050;-62
2021/07/19 14:29:18;;;;;;;10.70;7.70;;;28.70;63.90;;;;;;10345782;28;20096;-62
2021/07/19 14:34:23;;;;;;;13.23;7.55;;;28.90;64.50;;;;;;10349529;28;20066;-62
2021/07/19 14:39:25;;;;;;;15.82;7.65;;;28.60;64.80;;;;;;10346315;28;20046;-62
2021/07/19 14:44:27;;;;;;;10.57;6.97;;;28.70;64.20;;;;;;10348856;28;20443;-62
2021/07/19 14:49:28;;;;;;;14.65;7.38;;;29.10;63.70;;;;;;10350572;28;20057;-63
2021/07/19 14:54:30;;;;;;;15.55;8.57;;;29.30;63.10;;;;;;10347888;28;20092;-59
2021/07/19 14:59:32;;;;;;;12.68;8.32;;;29.50;63.20;;;;;;10343242;28;20108;-59
2021/07/19 15:04:33;;;;;;;9.55;7.43;;;28.80;62.60;;;;;;10344941;28;20054;-59
2021/07/19 15:09:35;;;;;;;12.40;7.75;;;29.70;63.00;;;;;;10346505;28;20464;-60
2021/07/19 15:14:37;;;;;;;11.43;8.38;;;29.30;62.50;;;;;;10347098;28;20054;-59
2021/07/19 15:19:39;;;;;;;12.45;7.55;;;29.50;63.10;;;;;;10347825;28;20041;-60
2021/07/19 15:24:41;;;;;;;14.35;7.68;;;29.70;61.90;;;;;;10346851;28;20046;-60
2021/07/19 15:29:43;;;;;;;10.80;7.78;;;29.90;62.30;;;;;;10345650;28;20107;-60
2021/07/19 15:34:44;;;;;;;12.55;8.18;;;29.60;62.80;;;;;;10346121;28;20045;-59
2021/07/19 15:39:46;;;;;;;16.00;9.25;;;29.60;62.20;;;;;;10326051;28;20101;-59
2021/07/19 15:44:48;;;;;;;14.65;7.40;;;30.00;60.70;;;;;;10347215;28;20049;-59
2021/07/19 15:49:50;;;;;;;11.60;7.40;;;29.80;61.70;;;;;;10349244;28;20361;-63
2021/07/19 15:54:52;;;;;;;11.88;7.75;;;29.60;62.90;;;;;;10346338;28;20076;-63
2021/07/19 15:59:54;;;;;;;11.05;7.75;;;29.70;62.90;;;;;;10347760;28;20038;-63
2021/07/19 16:04:57;;;;;;;20.30;8.48;;;29.40;62.90;;;;;;10331866;28;20125;-62
2021/07/19 16:09:58;;;;;;;11.38;8.52;;;28.50;63.70;;;;;;10329139;28;20042;-63
2021/07/19 16:15:00;;;;;;;14.65;8.55;;;27.50;66.00;;;;;;10349525;28;20499;-62
2021/07/19 16:20:04;;;;;;;11.50;8.65;;;27.60;68.20;;;;;;10348190;28;20049;-62
2021/07/19 16:25:07;;;;;;;12.77;8.73;;;27.00;67.60;;;;;;10343691;28;20057;-61
2021/07/19 16:30:10;;;;;;;13.43;7.88;;;27.60;68.20;;;;;;10347081;28;20109;-62
2021/07/19 16:35:13;;;;;;;17.75;8.57;;;27.70;66.20;;;;;;10348067;28;20041;-62
2021/07/19 16:40:15;;;;;;;18.90;8.63;;;28.10;66.40;;;;;;10345197;28;20050;-59
2021/07/19 16:50:21;;;;;;;16.77;9.18;;;27.40;66.30;;;;;;10346313;28;20049;-58
2021/07/19 16:55:23;;;;;;;12.95;8.65;;;26.60;69.10;;;;;;10346792;28;20053;-58
2021/07/19 17:00:25;;;;;;;14.88;8.27;;;25.90;70.70;;;;;;10345115;28;20143;-58
2021/07/19 17:05:26;;;;;;;12.75;8.80;;;25.70;71.40;;;;;;10353305;28;20632;-61
2021/07/19 17:10:28;;;;;;;12.68;7.68;;;25.70;71.90;;;;;;10356366;28;20484;-58
2021/07/19 17:15:30;;;;;;;11.70;8.35;;;25.70;72.20;;;;;;10352653;28;20650;-57
2021/07/19 17:20:32;;;;;;;11.80;8.07;;;25.00;72.50;;;;;;10356142;28;20045;-58
2021/07/19 17:25:36;;;;;;;14.70;7.90;;;24.80;73.60;;;;;;10358085;28;20499;-58
2021/07/19 17:30:40;;;;;;;15.65;9.23;;;24.80;74.60;;;;;;10355291;28;20045;-59
2021/07/19 17:35:44;;;;;;;11.05;7.45;;;25.00;74.10;;;;;;10356552;28;20385;-59
2021/07/19 17:40:46;;;;;;;11.38;7.90;;;24.80;74.00;;;;;;10353297;28;20053;-59
2021/07/19 17:45:48;;;;;;;12.05;7.50;;;24.70;74.70;;;;;;10355271;28;20120;-59
2021/07/19 17:50:49;;;;;;;11.73;7.32;;;24.40;74.60;;;;;;10353560;28;20050;-58
2021/07/19 17:55:51;;;;;;;10.93;7.32;;;24.90;74.20;;;;;;10353232;28;20096;-59
2021/07/19 18:00:53;;;;;;;14.65;7.72;;;24.90;73.00;;;;;;10353552;28;20111;-59
2021/07/19 18:05:55;;;;;;;10.15;6.47;;;24.80;74.30;;;;;;10354265;28;20041;-59
2021/07/19 18:10:57;;;;;;;12.57;6.90;;;24.20;74.30;;;;;;10351348;28;20050;-60
2021/07/19 18:15:58;;;;;;;12.90;6.72;;;23.90;75.80;;;;;;10331245;28;20116;-58
2021/07/19 18:21:00;;;;;;;12.20;6.40;;;23.60;76.80;;;;;;10351260;28;20042;-59
2021/07/19 18:31:30;;;;;;;10.13;6.05;;;22.80;77.60;;;;;;10281713;28;20053;-60
2021/07/19 18:36:32;;;;;;;10.52;6.38;;;22.60;78.60;;;;;;10350926;28;20058;-58
2021/07/19 18:41:33;;;;;;;12.35;6.43;;;22.30;78.90;;;;;;10352267;28;20062;-59
2021/07/19 18:46:35;;;;;;;13.05;7.40;;;22.10;79.70;;;;;;10348812;28;20092;-60
2021/07/19 18:51:37;;;;;;;9.10;6.10;;;21.90;79.90;;;;;;10349546;28;20089;-62
2021/07/19 18:56:39;;;;;;;14.60;6.85;;;21.70;80.90;;;;;;10351696;28;20054;-64
2021/07/19 19:01:42;;;;;;;12.95;6.35;;;21.60;81.60;;;;;;10349013;28;20061;-60
2021/07/19 19:06:44;;;;;;;10.98;6.50;;;21.40;80.80;;;;;;10348063;28;20464;-58
2021/07/19 19:11:45;;;;;;;11.82;6.20;;;21.10;81.20;;;;;;10351120;28;20084;-61
2021/07/19 19:16:47;;;;;;;13.80;6.60;;;21.00;81.80;;;;;;10351122;28;20139;-60
2021/07/19 19:21:49;;;;;;;11.75;6.70;;;20.80;83.50;;;;;;10350383;28;20484;-60
2021/07/19 19:26:51;;;;;;;12.52;5.93;;;20.70;83.10;;;;;;10350814;28;20099;-62
2021/07/19 19:31:52;;;;;;;12.23;6.00;;;20.50;84.10;;;;;;10349626;28;20074;-60
2021/07/19 19:36:54;;;;;;;12.35;6.70;;;20.30;84.60;;;;;;10351297;28;20046;-59
2021/07/19 19:41:56;;;;;;;10.80;6.07;;;20.20;85.80;;;;;;10332878;28;20062;-59
2021/07/19 19:46:58;;;;;;;12.50;7.32;;;20.00;86.70;;;;;;10310662;28;20122;-59
2021/07/19 19:52:00;;;;;;;12.57;7.18;;;19.90;87.90;;;;;;10310788;28;20567;-60
2021/07/19 19:57:01;;;;;;;13.57;6.38;;;19.80;88.30;;;;;;10310941;28;20066;-60
2021/07/19 20:02:04;;;;;;;12.60;6.20;;;19.60;89.20;;;;;;10305911;28;20066;-59
2021/07/19 20:07:06;;;;;;;14.25;7.07;;;19.50;90.10;;;;;;10310561;28;20042;-60
2021/07/19 20:12:08;;;;;;;9.95;6.55;;;19.40;90.70;;;;;;10282538;28;20620;-61
2021/07/19 20:17:10;;;;;;;11.98;6.57;;;19.30;91.40;;;;;;10309130;28;20042;-60
2021/07/19 20:22:12;;;;;;;16.52;6.82;;;19.20;91.80;;;;;;10309328;28;20085;-60
2021/07/19 20:27:14;;;;;;;13.77;6.90;;;19.10;92.40;;;;;;10305838;28;20108;-61
2021/07/19 20:32:16;;;;;;;10.80;6.65;;;19.00;92.70;;;;;;10305695;28;20042;-60
2021/07/19 20:37:18;;;;;;;20.35;7.80;;;19.00;93.30;;;;;;10309745;28;20066;-57
2021/07/19 20:42:20;;;;;;;16.83;7.38;;;18.90;93.90;;;;;;10339153;28;20103;-58
2021/07/19 20:47:22;;;;;;;17.13;7.43;;;18.80;94.60;;;;;;10360840;28;20049;-58
2021/07/19 20:52:23;;;;;;;15.43;7.30;;;18.70;95.30;;;;;;10358580;28;20049;-59
2021/07/19 20:57:25;;;;;;;13.88;7.28;;;18.70;96.00;;;;;;10338151;28;20088;-58
2021/07/19 21:02:27;;;;;;;11.95;6.78;;;18.50;96.80;;;;;;10359156;28;20111;-57
2021/07/19 21:07:28;;;;;;;12.68;7.20;;;18.40;97.20;;;;;;10361851;28;20058;-58
2021/07/19 21:12:32;;;;;;;12.80;6.72;;;18.40;98.00;;;;;;10360936;28;20049;-57
2021/07/19 21:17:34;;;;;;;16.48;7.43;;;18.20;99.10;;;;;;10362207;28;20445;-58
2021/07/19 21:22:39;;;;;;;11.65;7.18;;;18.10;99.60;;;;;;10323730;28;20159;-60
2021/07/19 21:27:43;;;;;;;13.13;7.35;;;18.10;99.90;;;;;;10358231;28;20481;-58
2021/07/19 21:32:45;;;;;;;17.92;7.75;;;18.00;99.90;;;;;;10357452;28;20050;-58
2021/07/19 21:37:46;;;;;;;13.57;6.80;;;17.90;99.90;;;;;;10360806;28;20468;-59
2021/07/19 21:42:48;;;;;;;13.55;7.88;;;17.70;99.90;;;;;;10359558;28;20053;-58
2021/07/19 21:47:50;;;;;;;14.15;7.03;;;17.70;99.90;;;;;;10358841;28;20066;-58
2021/07/19 21:52:52;;;;;;;13.57;7.20;;;17.60;99.90;;;;;;10352834;28;20077;-59
2021/07/19 21:57:54;;;;;;;15.63;7.28;;;17.50;99.90;;;;;;10354260;28;20116;-57
2021/07/19 22:02:58;;;;;;;14.57;6.88;;;17.50;99.90;;;;;;10350615;28;20050;-58
2021/07/19 22:08:02;;;;;;;15.13;6.95;;;17.40;99.90;;;;;;10355275;28;20132;-58
2021/07/19 22:13:05;;;;;;;13.60;7.60;;;17.40;99.90;;;;;;10351556;28;20428;-59
2021/07/19 22:18:12;;;;;;;17.00;8.55;;;17.30;99.90;;;;;;10354093;28;20439;-58
2021/07/19 22:23:13;;;;;;;11.98;6.50;;;17.20;99.90;;;;;;10354931;28;20107;-58
2021/07/19 22:28:15;;;;;;;14.88;6.90;;;17.10;99.90;;;;;;10352779;28;20108;-58
2021/07/19 22:33:21;;;;;;;12.35;6.82;;;17.10;99.90;;;;;;10350495;28;20049;-59
2021/07/19 22:38:23;;;;;;;11.20;6.75;;;17.00;99.90;;;;;;10351636;28;20074;-59
2021/07/19 22:43:25;;;;;;;17.45;7.22;;;16.90;99.90;;;;;;10351408;28;20570;-57
2021/07/19 22:48:27;;;;;;;13.45;7.07;;;16.80;99.90;;;;;;10353046;28;20159;-58
2021/07/19 22:53:28;;;;;;;12.82;6.70;;;16.70;99.90;;;;;;10349884;28;20054;-58
2021/07/19 22:58:30;;;;;;;14.60;6.85;;;16.70;99.90;;;;;;10352324;28;20049;-58
2021/07/19 23:03:32;;;;;;;11.88;6.22;;;16.60;99.90;;;;;;10349873;28;20054;-58
2021/07/19 23:08:35;;;;;;;13.18;6.72;;;16.60;99.90;;;;;;10351913;28;20061;-58
2021/07/19 23:13:37;;;;;;;14.48;7.30;;;16.50;99.90;;;;;;10350485;28;20050;-58
2021/07/19 23:18:39;;;;;;;11.98;6.53;;;16.40;99.90;;;;;;10351362;28;20050;-60
2021/07/19 23:23:41;;;;;;;13.98;7.47;;;16.40;99.90;;;;;;10351411;28;20049;-60
2021/07/19 23:28:43;;;;;;;12.70;6.40;;;16.40;99.90;;;;;;10349268;28;20050;-60
2021/07/19 23:33:44;;;;;;;11.15;6.18;;;16.30;99.90;;;;;;10333596;28;20073;-60
2021/07/19 23:38:46;;;;;;;15.23;7.10;;;16.30;99.90;;;;;;10348452;28;20105;-60
2021/07/19 23:43:48;;;;;;;14.40;6.90;;;16.20;99.90;;;;;;10348114;28;20058;-60
2021/07/19 23:48:51;;;;;;;14.10;6.95;;;16.10;99.90;;;;;;10351714;28;20049;-60
2021/07/19 23:53:52;;;;;;;12.48;6.63;;;16.00;99.90;;;;;;10351346;28;20077;-60
2021/07/19 23:58:54;;;;;;;12.25;6.85;;;16.00;99.90;;;;;;10317234;28;20392;-61
